Time;durP1;ratioP1;P1;durP2;ratioP2;P2;SDS_P1;SDS_P2;PMS_P1;PMS_P2;Temp;Humidity;BMP_temperature;BMP_pressure;BME280_temperature;BME280_humidity;BME280_pressure;Samples;Min_cycle;Max_cycle;Signal;HPM_P1;HPM_P2
2024/02/27 00:01:24;;;;;;;;;;;14.40;66.30;;;;;;5052219;28;19916;-75
2024/02/27 00:03:49;;;;;;;;;;;13.90;66.30;;;;;;5052806;28;19909;-75
2024/02/27 00:06:15;;;;;;;;;;;13.70;66.50;;;;;;5052259;28;19916;-75
2024/02/27 00:08:41;;;;;;;;;;;13.60;66.50;;;;;;5052164;28;20268;-75
2024/02/27 00:11:06;;;;;;;;;;;13.60;66.20;;;;;;5057665;28;19909;-75
2024/02/27 00:13:32;;;;;;;;;;;13.60;66.30;;;;;;5058882;28;20341;-75
2024/02/27 00:15:57;;;;;;;;;;;13.60;66.40;;;;;;5058925;28;19947;-75
2024/02/27 00:18:22;;;;;;;;;;;13.60;66.20;;;;;;5058759;28;19955;-75
2024/02/27 00:20:48;;;;;;;;;;;13.60;66.50;;;;;;5058879;28;20363;-75
2024/02/27 00:23:13;;;;;;;;;;;13.70;66.40;;;;;;5058724;28;19921;-75
2024/02/27 00:25:39;;;;;;;;;;;13.70;66.60;;;;;;5058786;28;19916;-75
2024/02/27 00:28:05;;;;;;;;;;;13.70;66.60;;;;;;5059066;28;19946;-75
2024/02/27 00:30:30;;;;;;;;;;;13.70;66.10;;;;;;5058772;28;19916;-76
2024/02/27 00:32:55;;;;;;;;;;;13.70;65.50;;;;;;5059246;28;19909;-75
2024/02/27 00:35:21;;;;;;;;;;;13.70;66.60;;;;;;5058689;28;19913;-75
2024/02/27 00:37:46;;;;;;;;;;;13.70;66.70;;;;;;5058681;28;20406;-75
2024/02/27 00:40:12;;;;;;;;;;;13.70;66.80;;;;;;5058687;28;19919;-75
2024/02/27 00:42:38;;;;;;;;;;;13.80;66.70;;;;;;5058607;28;20491;-75
2024/02/27 00:45:04;;;;;;;;;;;13.70;67.00;;;;;;5058689;28;19908;-72
2024/02/27 00:47:29;;;;;;;;;;;13.70;65.70;;;;;;5058769;28;19916;-72
2024/02/27 00:49:55;;;;;;;;;;;13.70;66.80;;;;;;5058588;28;20378;-72
2024/02/27 00:52:20;;;;;;;;;;;13.80;66.80;;;;;;5058485;28;19978;-72
2024/02/27 00:54:46;;;;;;;;;;;13.80;66.90;;;;;;5058533;28;19920;-72
2024/02/27 00:57:11;;;;;;;;;;;13.80;66.90;;;;;;5058524;28;19909;-72
2024/02/27 00:59:37;;;;;;;;;;;13.80;66.80;;;;;;5059010;28;20371;-72
2024/02/27 01:02:02;;;;;;;;;;;13.90;66.60;;;;;;5058428;28;19927;-72
2024/02/27 01:04:28;;;;;;;;;;;13.80;67.10;;;;;;5058455;28;20284;-72
2024/02/27 01:06:53;;;;;;;;;;;13.80;66.90;;;;;;5058251;28;19908;-72
2024/02/27 01:09:19;;;;;;;;;;;14.00;67.00;;;;;;5058466;28;19916;-72
2024/02/27 01:11:44;;;;;;;;;;;13.80;66.80;;;;;;5058454;28;19908;-72
2024/02/27 01:14:10;;;;;;;;;;;13.80;66.70;;;;;;5058459;28;19913;-72
2024/02/27 01:16:35;;;;;;;;;;;13.90;67.00;;;;;;5040531;28;20374;-72
2024/02/27 01:19:01;;;;;;;;;;;13.80;67.00;;;;;;5058293;28;20004;-72
2024/02/27 01:21:26;;;;;;;;;;;13.80;67.80;;;;;;5056939;28;19920;-72
2024/02/27 01:23:52;;;;;;;;;;;14.00;67.10;;;;;;5055164;28;20036;-72
2024/02/27 01:26:17;;;;;;;;;;;13.80;67.50;;;;;;5055063;28;20353;-72
2024/02/27 01:28:43;;;;;;;;;;;13.80;66.90;;;;;;5055521;28;19936;-72
2024/02/27 01:31:08;;;;;;;;;;;13.80;67.00;;;;;;5055078;28;20382;-72
2024/02/27 01:33:33;;;;;;;;;;;13.90;67.00;;;;;;5054974;28;19909;-72
2024/02/27 01:35:59;;;;;;;;;;;13.90;67.00;;;;;;5054937;28;19909;-72
2024/02/27 01:38:24;;;;;;;;;;;13.80;66.80;;;;;;5054849;28;19916;-72
2024/02/27 01:40:50;;;;;;;;;;;13.90;66.90;;;;;;5055173;28;19971;-72
2024/02/27 01:43:25;;;;;;;;;;;13.80;66.70;;;;;;5054757;28;19939;-72
2024/02/27 01:45:59;;;;;;;;;;;13.90;62.40;;;;;;5054999;28;19955;-72
2024/02/27 01:48:25;;;;;;;;;;;13.90;67.00;;;;;;5054963;28;20286;-72
2024/02/27 01:50:51;;;;;;;;;;;13.90;66.90;;;;;;5054625;28;19909;-72
2024/02/27 01:53:17;;;;;;;;;;;13.80;66.90;;;;;;5054870;28;19912;-72
2024/02/27 01:55:43;;;;;;;;;;;13.90;67.20;;;;;;5054730;28;19920;-72
2024/02/27 01:58:10;;;;;;;;;;;13.90;66.80;;;;;;5054801;28;19916;-72
2024/02/27 02:00:36;;;;;;;;;;;13.80;67.10;;;;;;5054726;28;20050;-72
2024/02/27 02:03:03;;;;;;;;;;;13.80;66.50;;;;;;5054172;28;19921;-72
2024/02/27 02:05:29;;;;;;;;;;;13.80;66.30;;;;;;5054313;28;19916;-72
2024/02/27 02:07:56;;;;;;;;;;;13.80;67.00;;;;;;5054287;28;19920;-71
2024/02/27 02:10:22;;;;;;;;;;;13.90;67.40;;;;;;5054457;28;19913;-72
2024/02/27 02:12:48;;;;;;;;;;;13.80;67.10;;;;;;5054402;28;19915;-72
2024/02/27 02:15:14;;;;;;;;;;;13.80;66.70;;;;;;5054724;28;20102;-72
2024/02/27 02:17:43;;;;;;;;;;;13.90;66.90;;;;;;5054349;28;20017;-72
2024/02/27 02:20:13;;;;;;;;;;;13.80;62.20;;;;;;5054076;28;20363;-72
2024/02/27 02:22:39;;;;;;;;;;;13.80;67.00;;;;;;5053960;28;19959;-72
2024/02/27 02:25:07;;;;;;;;;;;13.80;67.00;;;;;;5054347;28;19909;-72
2024/02/27 02:27:36;;;;;;;;;;;13.80;66.60;;;;;;5054194;28;19909;-72
2024/02/27 02:30:01;;;;;;;;;;;13.80;67.00;;;;;;5054199;28;19974;-72
2024/02/27 02:32:27;;;;;;;;;;;13.80;66.40;;;;;;5053733;28;19909;-72
2024/02/27 02:34:53;;;;;;;;;;;13.90;66.90;;;;;;5053969;28;19909;-72
2024/02/27 02:37:21;;;;;;;;;;;14.20;67.10;;;;;;5054030;28;19909;-72
2024/02/27 02:39:47;;;;;;;;;;;13.80;66.90;;;;;;5053984;28;19988;-72
2024/02/27 02:42:14;;;;;;;;;;;13.80;67.10;;;;;;5035827;28;20078;-72
2024/02/27 02:44:40;;;;;;;;;;;13.80;67.10;;;;;;5054414;28;19962;-72
2024/02/27 02:47:06;;;;;;;;;;;13.80;67.20;;;;;;5053504;28;20000;-72
2024/02/27 02:49:31;;;;;;;;;;;13.80;66.90;;;;;;5053787;28;19909;-72
2024/02/27 02:51:58;;;;;;;;;;;13.80;66.80;;;;;;5053391;28;19987;-72
2024/02/27 02:54:24;;;;;;;;;;;13.80;66.90;;;;;;5053724;28;19909;-72
2024/02/27 02:56:50;;;;;;;;;;;13.80;66.40;;;;;;5053667;28;20003;-75
2024/02/27 02:59:16;;;;;;;;;;;13.90;66.60;;;;;;5053594;28;19909;-75
2024/02/27 03:01:41;;;;;;;;;;;13.80;66.50;;;;;;5053147;28;20341;-75
2024/02/27 03:04:09;;;;;;;;;;;13.80;66.90;;;;;;5053204;28;19909;-75
2024/02/27 03:06:35;;;;;;;;;;;13.80;66.60;;;;;;5053145;28;19955;-75
2024/02/27 03:09:01;;;;;;;;;;;13.80;67.00;;;;;;5052990;28;19951;-75
2024/02/27 03:11:27;;;;;;;;;;;13.80;67.40;;;;;;5053396;28;20310;-75
2024/02/27 03:13:53;;;;;;;;;;;13.80;66.90;;;;;;5053562;28;19915;-75
2024/02/27 03:16:19;;;;;;;;;;;13.80;66.50;;;;;;5053336;28;19915;-75
2024/02/27 03:18:45;;;;;;;;;;;13.80;66.80;;;;;;5053157;28;19962;-75
2024/02/27 03:21:11;;;;;;;;;;;13.80;66.70;;;;;;5053047;28;19909;-75
2024/02/27 03:23:36;;;;;;;;;;;13.80;67.10;;;;;;5052943;28;20368;-75
2024/02/27 03:26:02;;;;;;;;;;;13.80;67.00;;;;;;5052917;28;19917;-75
2024/02/27 03:28:28;;;;;;;;;;;13.80;66.60;;;;;;5053067;28;19909;-75
2024/02/27 03:30:54;;;;;;;;;;;13.80;67.00;;;;;;5052720;28;20219;-76
2024/02/27 03:33:20;;;;;;;;;;;13.80;66.90;;;;;;5052917;28;19948;-75
2024/02/27 03:35:46;;;;;;;;;;;13.80;67.20;;;;;;5052721;28;19909;-75
2024/02/27 03:38:12;;;;;;;;;;;13.70;67.10;;;;;;5052545;28;20040;-75
2024/02/27 03:40:38;;;;;;;;;;;13.80;66.60;;;;;;5053417;28;19909;-75
2024/02/27 03:43:04;;;;;;;;;;;13.80;67.20;;;;;;5052474;28;19916;-75
2024/02/27 03:45:30;;;;;;;;;;;13.80;67.10;;;;;;5052015;28;19909;-75
2024/02/27 03:47:55;;;;;;;;;;;13.80;67.30;;;;;;5052847;28;19909;-75
2024/02/27 03:50:21;;;;;;;;;;;13.90;67.10;;;;;;5052443;28;20314;-75
2024/02/27 03:52:47;;;;;;;;;;;13.80;67.10;;;;;;5052496;28;19916;-75
2024/02/27 03:55:13;;;;;;;;;;;13.80;67.00;;;;;;5052469;28;19909;-75
2024/02/27 03:57:39;;;;;;;;;;;13.80;67.00;;;;;;5052403;28;19912;-75
2024/02/27 04:00:06;;;;;;;;;;;13.80;66.90;;;;;;5052595;28;19926;-75
2024/02/27 04:02:32;;;;;;;;;;;14.10;66.40;;;;;;5052472;28;19924;-75
2024/02/27 04:04:58;;;;;;;;;;;13.80;66.80;;;;;;5052578;28;19962;-75
2024/02/27 04:07:24;;;;;;;;;;;13.90;66.80;;;;;;5052233;28;20011;-75
2024/02/27 04:09:49;;;;;;;;;;;13.80;66.80;;;;;;5053002;28;20278;-75
2024/02/27 04:12:15;;;;;;;;;;;13.80;67.00;;;;;;5052581;28;19912;-75
2024/02/27 04:14:41;;;;;;;;;;;13.90;67.00;;;;;;5052206;28;19955;-76
2024/02/27 04:17:07;;;;;;;;;;;13.80;66.90;;;;;;5052376;28;19955;-75
2024/02/27 04:19:33;;;;;;;;;;;13.90;66.90;;;;;;5052531;28;19909;-75
2024/02/27 04:21:59;;;;;;;;;;;13.90;66.80;;;;;;5052407;28;20294;-72
2024/02/27 04:24:25;;;;;;;;;;;13.80;66.80;;;;;;5052013;28;20385;-72
2024/02/27 04:26:51;;;;;;;;;;;13.80;66.60;;;;;;5052402;28;19909;-72
2024/02/27 04:29:17;;;;;;;;;;;13.90;66.90;;;;;;5052382;28;19909;-72
2024/02/27 04:31:43;;;;;;;;;;;13.80;66.80;;;;;;5052353;28;19913;-72
2024/02/27 04:34:10;;;;;;;;;;;13.80;66.80;;;;;;5052310;28;19908;-72
2024/02/27 04:36:36;;;;;;;;;;;13.80;66.60;;;;;;5052317;28;19917;-72
2024/02/27 04:39:04;;;;;;;;;;;13.80;66.20;;;;;;5052736;28;20035;-72
2024/02/27 04:41:29;;;;;;;;;;;13.80;66.50;;;;;;5051847;28;19909;-72
2024/02/27 04:43:54;;;;;;;;;;;13.80;66.50;;;;;;5051901;28;19908;-72
2024/02/27 04:46:20;;;;;;;;;;;13.90;67.00;;;;;;5051900;28;19908;-72
2024/02/27 04:48:45;;;;;;;;;;;13.90;66.90;;;;;;5052011;28;19935;-72
2024/02/27 04:51:11;;;;;;;;;;;13.80;67.10;;;;;;5051879;28;19908;-72
2024/02/27 04:53:38;;;;;;;;;;;13.80;66.60;;;;;;5051834;28;19913;-72
2024/02/27 04:56:04;;;;;;;;;;;13.70;66.60;;;;;;5052633;28;19909;-72
2024/02/27 04:58:29;;;;;;;;;;;13.70;65.50;;;;;;5055604;28;19908;-72
2024/02/27 05:00:55;;;;;;;;;;;13.80;66.80;;;;;;5055630;28;19909;-72
2024/02/27 05:03:20;;;;;;;;;;;13.70;66.30;;;;;;5055356;28;19917;-72
2024/02/27 05:05:46;;;;;;;;;;;13.80;66.20;;;;;;5055993;28;19916;-72
2024/02/27 05:08:11;;;;;;;;;;;13.80;66.90;;;;;;5055245;28;19920;-72
2024/02/27 05:10:37;;;;;;;;;;;13.70;66.90;;;;;;5055431;28;19915;-72
2024/02/27 05:13:02;;;;;;;;;;;13.70;66.80;;;;;;5055353;28;19920;-72
2024/02/27 05:15:29;;;;;;;;;;;13.70;66.40;;;;;;5055330;28;19908;-72
2024/02/27 05:17:54;;;;;;;;;;;13.70;66.80;;;;;;5055343;28;19916;-72
2024/02/27 05:20:19;;;;;;;;;;;13.70;67.90;;;;;;5055340;28;19909;-72
2024/02/27 05:22:45;;;;;;;;;;;13.60;67.20;;;;;;5055052;28;19924;-72
2024/02/27 05:25:10;;;;;;;;;;;13.80;67.20;;;;;;5055126;28;19940;-72
2024/02/27 05:27:36;;;;;;;;;;;13.80;67.20;;;;;;5055002;28;19909;-72
2024/02/27 05:30:04;;;;;;;;;;;13.70;67.40;;;;;;5055128;28;19908;-72
2024/02/27 05:32:30;;;;;;;;;;;13.80;67.40;;;;;;5055115;28;19908;-72
2024/02/27 05:34:56;;;;;;;;;;;13.70;67.00;;;;;;5055819;28;19909;-75
2024/02/27 05:37:21;;;;;;;;;;;13.80;67.70;;;;;;5054818;28;19916;-75
2024/02/27 05:39:46;;;;;;;;;;;13.70;67.60;;;;;;5054823;28;19908;-75
2024/02/27 05:42:12;;;;;;;;;;;13.70;67.50;;;;;;5054780;28;20016;-75
2024/02/27 05:44:38;;;;;;;;;;;13.70;67.40;;;;;;5054775;28;19909;-75
2024/02/27 05:47:04;;;;;;;;;;;13.70;67.70;;;;;;5054811;28;20325;-75
2024/02/27 05:49:29;;;;;;;;;;;13.60;67.50;;;;;;5054737;28;20008;-75
2024/02/27 05:51:55;;;;;;;;;;;13.70;67.60;;;;;;5054724;28;20434;-75
2024/02/27 05:54:20;;;;;;;;;;;13.80;67.80;;;;;;5054625;28;20003;-75
2024/02/27 05:56:46;;;;;;;;;;;13.70;68.00;;;;;;5054591;28;19909;-75
2024/02/27 05:59:11;;;;;;;;;;;13.70;67.90;;;;;;5054576;28;19944;-75
2024/02/27 06:01:37;;;;;;;;;;;13.70;67.50;;;;;;5054615;28;19963;-75
2024/02/27 06:04:03;;;;;;;;;;;13.70;67.80;;;;;;5055000;28;20267;-75
2024/02/27 06:06:28;;;;;;;;;;;13.70;67.70;;;;;;5054402;28;19909;-75
2024/02/27 06:08:55;;;;;;;;;;;13.70;64.70;;;;;;5052555;28;21505;-76
2024/02/27 06:11:21;;;;;;;;;;;13.70;68.10;;;;;;5054340;28;19960;-74
2024/02/27 06:13:46;;;;;;;;;;;13.70;68.10;;;;;;5054285;28;19962;-73
2024/02/27 06:16:12;;;;;;;;;;;13.70;68.00;;;;;;5054561;28;19920;-74
2024/02/27 06:18:41;;;;;;;;;;;13.80;68.00;;;;;;5054141;28;20007;-74
2024/02/27 06:23:51;;;;;;;;;;;13.70;64.30;;;;;;5054285;28;19939;-75
2024/02/27 06:26:17;;;;;;;;;;;13.70;67.90;;;;;;5053901;28;19913;-75
2024/02/27 06:28:42;;;;;;;;;;;13.70;67.80;;;;;;5053740;28;19919;-75
2024/02/27 06:31:12;;;;;;;;;;;13.70;67.80;;;;;;5053868;28;20007;-76
2024/02/27 06:33:37;;;;;;;;;;;13.70;62.80;;;;;;5053686;28;20283;-76
2024/02/27 06:36:03;;;;;;;;;;;13.80;67.70;;;;;;5053635;28;20022;-75
2024/02/27 06:38:28;;;;;;;;;;;13.70;67.40;;;;;;5053797;28;19983;-73
2024/02/27 06:40:54;;;;;;;;;;;13.70;67.90;;;;;;5053622;28;19953;-74
2024/02/27 06:43:19;;;;;;;;;;;13.70;67.90;;;;;;5053635;28;19924;-71
2024/02/27 06:45:45;;;;;;;;;;;13.80;67.90;;;;;;5053653;28;19974;-71
2024/02/27 06:48:13;;;;;;;;;;;13.70;67.80;;;;;;5053520;28;19908;-72
2024/02/27 06:50:38;;;;;;;;;;;13.70;67.70;;;;;;5053415;28;19909;-71
2024/02/27 06:53:04;;;;;;;;;;;13.70;68.00;;;;;;5053202;28;19915;-71
2024/02/27 06:55:30;;;;;;;;;;;13.70;68.10;;;;;;5053253;28;19909;-71
2024/02/27 06:57:55;;;;;;;;;;;13.50;67.70;;;;;;5053206;28;19919;-72
2024/02/27 07:00:22;;;;;;;;;;;13.70;67.80;;;;;;5053364;28;19913;-73
2024/02/27 07:02:47;;;;;;;;;;;13.60;67.20;;;;;;5052138;28;19921;-72
2024/02/27 07:05:13;;;;;;;;;;;13.70;67.70;;;;;;5052299;28;19920;-73
2024/02/27 07:07:38;;;;;;;;;;;13.70;67.30;;;;;;5052129;28;19928;-75
2024/02/27 07:10:04;;;;;;;;;;;13.60;67.00;;;;;;5052229;28;19963;-73
2024/02/27 07:12:32;;;;;;;;;;;13.70;66.70;;;;;;5052604;28;20437;-72
2024/02/27 07:14:58;;;;;;;;;;;13.90;67.70;;;;;;5052659;28;20401;-73
2024/02/27 07:17:23;;;;;;;;;;;13.70;67.80;;;;;;5053081;28;19967;-73
2024/02/27 07:19:49;;;;;;;;;;;13.70;67.60;;;;;;5052941;28;20355;-72
2024/02/27 07:22:14;;;;;;;;;;;13.80;67.50;;;;;;5052963;28;19917;-72
2024/02/27 07:24:40;;;;;;;;;;;13.70;67.40;;;;;;5052913;28;20018;-73
2024/02/27 07:27:05;;;;;;;;;;;13.80;67.40;;;;;;5052944;28;19909;-76
2024/02/27 07:29:31;;;;;;;;;;;13.70;67.60;;;;;;5053304;28;19908;-73
2024/02/27 07:31:56;;;;;;;;;;;13.60;67.50;;;;;;5052596;28;19954;-72
2024/02/27 07:34:23;;;;;;;;;;;13.70;67.60;;;;;;5052740;28;19966;-72
2024/02/27 07:36:48;;;;;;;;;;;13.70;67.20;;;;;;5052514;28;20371;-72
2024/02/27 07:39:15;;;;;;;;;;;13.70;67.20;;;;;;5052513;28;20071;-72
2024/02/27 07:41:41;;;;;;;;;;;13.60;67.10;;;;;;5052446;28;19920;-73
2024/02/27 07:44:06;;;;;;;;;;;13.70;67.50;;;;;;5052417;28;19909;-71
2024/02/27 07:46:33;;;;;;;;;;;13.70;67.60;;;;;;5052039;28;19913;-71
2024/02/27 07:48:59;;;;;;;;;;;13.70;67.40;;;;;;5051552;28;19909;-72
2024/02/27 07:51:29;;;;;;;;;;;13.70;67.50;;;;;;5052593;28;19916;-71
2024/02/27 07:53:55;;;;;;;;;;;13.70;62.90;;;;;;5052557;28;19908;-71
2024/02/27 07:56:21;;;;;;;;;;;13.70;67.30;;;;;;5052602;28;19908;-71
2024/02/27 07:58:47;;;;;;;;;;;13.70;67.20;;;;;;5053098;28;19992;-71
2024/02/27 08:01:13;;;;;;;;;;;13.40;67.00;;;;;;5052485;28;19916;-71
2024/02/27 08:03:39;;;;;;;;;;;13.60;67.40;;;;;;5052456;28;20279;-71
2024/02/27 08:06:08;;;;;;;;;;;13.70;67.40;;;;;;5052359;28;20355;-71
2024/02/27 08:08:53;;;;;;;;;;;13.70;67.20;;;;;;5050530;28;19921;-71
2024/02/27 08:11:19;;;;;;;;;;;13.60;67.10;;;;;;5052377;28;19909;-71
2024/02/27 08:13:45;;;;;;;;;;;13.70;67.30;;;;;;5052005;28;19915;-71
2024/02/27 08:16:10;;;;;;;;;;;13.60;67.40;;;;;;5052216;28;19912;-71
2024/02/27 08:18:36;;;;;;;;;;;13.70;67.40;;;;;;5052319;28;20390;-71
2024/02/27 08:21:03;;;;;;;;;;;13.80;67.40;;;;;;5051937;28;19978;-71
2024/02/27 08:23:30;;;;;;;;;;;13.70;66.80;;;;;;5052149;28;19956;-71
2024/02/27 08:25:56;;;;;;;;;;;13.70;67.20;;;;;;5052702;28;19909;-71
2024/02/27 08:28:22;;;;;;;;;;;13.70;67.30;;;;;;5052132;28;20011;-71
2024/02/27 08:30:48;;;;;;;;;;;13.70;67.40;;;;;;5052668;28;20426;-71
2024/02/27 08:33:14;;;;;;;;;;;13.70;67.60;;;;;;5056220;28;20294;-71
2024/02/27 08:35:40;;;;;;;;;;;13.80;67.20;;;;;;5056002;28;19932;-71
2024/02/27 08:38:06;;;;;;;;;;;13.70;67.50;;;;;;5056267;28;19909;-71
2024/02/27 08:40:32;;;;;;;;;;;13.70;67.40;;;;;;5056086;28;19920;-72
2024/02/27 08:42:58;;;;;;;;;;;13.70;67.40;;;;;;5056103;28;20395;-71
2024/02/27 08:45:24;;;;;;;;;;;13.80;67.80;;;;;;5055981;28;20086;-71
2024/02/27 08:47:50;;;;;;;;;;;13.80;67.70;;;;;;5055699;28;19908;-71
2024/02/27 08:50:16;;;;;;;;;;;14.00;67.90;;;;;;5056002;28;19964;-71
2024/02/27 08:52:42;;;;;;;;;;;13.80;68.00;;;;;;5055571;28;20382;-71
2024/02/27 08:55:08;;;;;;;;;;;13.80;67.90;;;;;;5056343;28;20321;-71
2024/02/27 08:57:34;;;;;;;;;;;13.80;67.30;;;;;;5055878;28;19909;-71
2024/02/27 09:00:00;;;;;;;;;;;13.80;68.00;;;;;;5055852;28;20294;-71
2024/02/27 09:02:27;;;;;;;;;;;13.90;67.70;;;;;;5055582;28;19936;-71
2024/02/27 09:04:52;;;;;;;;;;;13.80;68.10;;;;;;5055680;28;19913;-71
2024/02/27 09:07:19;;;;;;;;;;;13.90;68.30;;;;;;5055527;28;20271;-76
2024/02/27 09:09:45;;;;;;;;;;;14.00;68.90;;;;;;5055665;28;20270;-76
2024/02/27 09:12:11;;;;;;;;;;;14.00;68.00;;;;;;5055760;28;19909;-76
2024/02/27 09:14:38;;;;;;;;;;;14.00;67.90;;;;;;5055573;28;19913;-76
2024/02/27 09:17:04;;;;;;;;;;;14.10;68.00;;;;;;5055483;28;19909;-76
2024/02/27 09:19:30;;;;;;;;;;;14.10;68.40;;;;;;5055086;28;20259;-76
2024/02/27 09:21:56;;;;;;;;;;;14.10;68.20;;;;;;5055322;28;20016;-76
2024/02/27 09:24:23;;;;;;;;;;;14.20;68.30;;;;;;5055772;28;19944;-76
2024/02/27 09:26:49;;;;;;;;;;;14.00;68.30;;;;;;5055222;28;20274;-76
2024/02/27 09:29:15;;;;;;;;;;;14.30;68.20;;;;;;5054968;28;19916;-76
2024/02/27 09:31:45;;;;;;;;;;;14.20;68.10;;;;;;5054857;28;19909;-76
2024/02/27 09:34:11;;;;;;;;;;;14.20;68.40;;;;;;5055192;28;19916;-76
2024/02/27 09:36:38;;;;;;;;;;;14.30;68.20;;;;;;5055124;28;19931;-76
2024/02/27 09:39:06;;;;;;;;;;;14.40;68.30;;;;;;5054688;28;19948;-76
2024/02/27 09:41:44;;;;;;;;;;;14.40;68.40;;;;;;5054889;28;19966;-76
2024/02/27 09:44:11;;;;;;;;;;;14.30;63.60;;;;;;5053867;28;19908;-76
2024/02/27 09:46:38;;;;;;;;;;;14.40;68.50;;;;;;5054910;28;20317;-76
2024/02/27 09:49:06;;;;;;;;;;;14.40;68.60;;;;;;5054525;28;20446;-76
2024/02/27 09:51:33;;;;;;;;;;;14.40;68.10;;;;;;5055127;28;20347;-76
2024/02/27 09:53:59;;;;;;;;;;;14.50;68.20;;;;;;5054807;28;20325;-76
2024/02/27 09:56:27;;;;;;;;;;;14.50;68.80;;;;;;5054744;28;19909;-76
2024/02/27 09:58:54;;;;;;;;;;;14.50;68.10;;;;;;5054434;28;19948;-76
2024/02/27 10:01:21;;;;;;;;;;;14.60;67.60;;;;;;5054338;28;19909;-76
2024/02/27 10:03:47;;;;;;;;;;;14.60;68.10;;;;;;5054590;28;19925;-72
2024/02/27 10:06:15;;;;;;;;;;;14.70;67.70;;;;;;5054274;28;20388;-71
2024/02/27 10:08:46;;;;;;;;;;;14.70;67.90;;;;;;5054125;28;20287;-71
2024/02/27 10:11:12;;;;;;;;;;;14.80;63.20;;;;;;5054547;28;19920;-72
2024/02/27 10:13:38;;;;;;;;;;;14.80;67.80;;;;;;5054522;28;19909;-71
2024/02/27 10:16:04;;;;;;;;;;;14.80;67.60;;;;;;5054413;28;19954;-72
2024/02/27 10:18:31;;;;;;;;;;;14.80;66.10;;;;;;5054282;28;19908;-71
2024/02/27 10:20:57;;;;;;;;;;;14.80;67.20;;;;;;5054430;28;20390;-71
2024/02/27 10:23:23;;;;;;;;;;;14.90;67.80;;;;;;5054120;28;19921;-71
2024/02/27 10:25:49;;;;;;;;;;;14.90;67.60;;;;;;5054142;28;19913;-71
2024/02/27 10:28:18;;;;;;;;;;;14.40;67.10;;;;;;5054116;28;20268;-71
2024/02/27 10:30:44;;;;;;;;;;;15.10;62.60;;;;;;5054159;28;20294;-71
2024/02/27 10:33:13;;;;;;;;;;;15.10;67.30;;;;;;5053827;28;19908;-71
2024/02/27 10:35:40;;;;;;;;;;;15.10;67.30;;;;;;5053555;28;19912;-71
2024/02/27 10:38:18;;;;;;;;;;;15.10;67.30;;;;;;5054017;28;19909;-71
2024/02/27 10:40:44;;;;;;;;;;;15.20;62.20;;;;;;5053666;28;20395;-71
2024/02/27 10:43:10;;;;;;;;;;;15.30;66.90;;;;;;5053539;28;20016;-71
2024/02/27 10:45:36;;;;;;;;;;;15.30;66.70;;;;;;5053563;28;19954;-71
2024/02/27 10:48:03;;;;;;;;;;;15.30;66.40;;;;;;5054096;28;19909;-71
2024/02/27 10:50:30;;;;;;;;;;;15.40;66.40;;;;;;5053461;28;19932;-71
2024/02/27 10:52:59;;;;;;;;;;;15.50;66.60;;;;;;5053690;28;20006;-71
2024/02/27 10:55:26;;;;;;;;;;;15.50;66.20;;;;;;5053308;28;19909;-71
2024/02/27 10:57:59;;;;;;;;;;;15.50;66.00;;;;;;5053731;28;19916;-72
2024/02/27 11:00:27;;;;;;;;;;;15.60;65.90;;;;;;5053685;28;20275;-71
2024/02/27 11:02:56;;;;;;;;;;;15.70;64.70;;;;;;5053020;28;19923;-71
2024/02/27 11:05:26;;;;;;;;;;;15.80;65.50;;;;;;5053323;28;19917;-71
2024/02/27 11:07:54;;;;;;;;;;;15.80;65.70;;;;;;5052822;28;20399;-72
2024/02/27 11:10:21;;;;;;;;;;;15.90;65.40;;;;;;5053336;28;20271;-71
2024/02/27 11:12:50;;;;;;;;;;;16.00;65.40;;;;;;5053162;28;19990;-72
2024/02/27 11:15:17;;;;;;;;;;;16.00;65.40;;;;;;5053264;28;20385;-72
2024/02/27 11:17:47;;;;;;;;;;;16.10;65.00;;;;;;5053814;28;20054;-72
2024/02/27 11:20:15;;;;;;;;;;;16.10;65.00;;;;;;5053218;28;19964;-72
2024/02/27 11:22:42;;;;;;;;;;;16.20;64.60;;;;;;5053231;28;20258;-72
2024/02/27 11:25:09;;;;;;;;;;;16.30;64.50;;;;;;5052863;28;20389;-72
2024/02/27 11:27:35;;;;;;;;;;;16.40;64.30;;;;;;5053134;28;19916;-72
2024/02/27 11:30:02;;;;;;;;;;;16.40;64.40;;;;;;5052983;28;20018;-76
2024/02/27 11:32:30;;;;;;;;;;;16.50;64.20;;;;;;5052920;28;19954;-76
2024/02/27 11:34:56;;;;;;;;;;;16.50;63.60;;;;;;5052891;28;19913;-76
2024/02/27 11:37:24;;;;;;;;;;;16.60;63.60;;;;;;5052835;28;19982;-76
2024/02/27 11:39:50;;;;;;;;;;;16.70;63.80;;;;;;5052710;28;19915;-76
2024/02/27 11:42:26;;;;;;;;;;;16.80;63.50;;;;;;5052635;28;19917;-76
2024/02/27 11:45:01;;;;;;;;;;;16.80;59.00;;;;;;5053196;28;19920;-76
2024/02/27 11:47:42;;;;;;;;;;;16.80;59.50;;;;;;5052419;28;19908;-76
2024/02/27 11:50:09;;;;;;;;;;;17.00;58.80;;;;;;5052567;28;19931;-76
2024/02/27 11:52:35;;;;;;;;;;;16.90;63.30;;;;;;5052607;28;19909;-76
2024/02/27 11:55:08;;;;;;;;;;;16.90;63.10;;;;;;5052571;28;19909;-77
2024/02/27 11:57:35;;;;;;;;;;;17.00;58.70;;;;;;5052350;28;19909;-76
2024/02/27 12:00:05;;;;;;;;;;;16.70;62.90;;;;;;5052157;28;19909;-76
2024/02/27 12:02:34;;;;;;;;;;;17.10;62.40;;;;;;5052289;28;19916;-75
2024/02/27 12:05:00;;;;;;;;;;;17.20;63.00;;;;;;5052111;28;19909;-76
2024/02/27 12:07:29;;;;;;;;;;;17.20;63.00;;;;;;5051476;28;20228;-76
2024/02/27 12:10:08;;;;;;;;;;;17.30;58.40;;;;;;5052121;28;19916;-76
2024/02/27 12:12:35;;;;;;;;;;;17.30;58.10;;;;;;5052159;28;19916;-76
2024/02/27 12:15:01;;;;;;;;;;;17.40;62.70;;;;;;5052586;28;19987;-71
2024/02/27 12:17:28;;;;;;;;;;;17.40;62.30;;;;;;5052359;28;19955;-72
2024/02/27 12:19:54;;;;;;;;;;;17.50;62.40;;;;;;5052318;28;19916;-72
2024/02/27 12:22:20;;;;;;;;;;;17.50;62.40;;;;;;5051913;28;20375;-71
2024/02/27 12:24:46;;;;;;;;;;;17.50;62.10;;;;;;5052053;28;20364;-72
2024/02/27 12:27:15;;;;;;;;;;;17.90;62.30;;;;;;5051870;28;20201;-72
2024/02/27 12:29:41;;;;;;;;;;;17.70;57.50;;;;;;5052254;28;19990;-72
2024/02/27 12:32:07;;;;;;;;;;;17.70;61.90;;;;;;5052111;28;20292;-72
2024/02/27 12:34:35;;;;;;;;;;;17.80;62.00;;;;;;5052129;28;19912;-71
2024/02/27 12:37:02;;;;;;;;;;;18.00;61.70;;;;;;5052077;28;19920;-72
2024/02/27 12:39:28;;;;;;;;;;;18.00;61.30;;;;;;5052119;28;20062;-72
2024/02/27 12:41:55;;;;;;;;;;;18.00;61.20;;;;;;5052565;28;19923;-72
2024/02/27 12:44:21;;;;;;;;;;;18.10;60.90;;;;;;5052170;28;20267;-72
2024/02/27 12:46:47;;;;;;;;;;;18.10;61.00;;;;;;5052155;28;19916;-72
2024/02/27 12:49:13;;;;;;;;;;;18.20;60.80;;;;;;5052013;28;19917;-72
2024/02/27 12:51:39;;;;;;;;;;;18.20;61.00;;;;;;5051864;28;19912;-72
2024/02/27 12:54:06;;;;;;;;;;;18.20;60.80;;;;;;5052105;28;20286;-72
2024/02/27 12:56:34;;;;;;;;;;;18.40;60.60;;;;;;5051990;28;19967;-72
2024/02/27 12:59:00;;;;;;;;;;;18.40;60.90;;;;;;5051809;28;19909;-73
2024/02/27 13:01:26;;;;;;;;;;;18.40;60.20;;;;;;5051763;28;19909;-71
2024/02/27 13:03:51;;;;;;;;;;;18.40;60.60;;;;;;5051451;28;20339;-72
2024/02/27 13:06:18;;;;;;;;;;;18.40;60.70;;;;;;5051941;28;19913;-71
2024/02/27 13:08:46;;;;;;;;;;;18.40;60.60;;;;;;5051723;28;19921;-72
2024/02/27 13:11:12;;;;;;;;;;;18.30;60.80;;;;;;5052428;28;19976;-72
2024/02/27 13:13:38;;;;;;;;;;;18.50;60.70;;;;;;5051565;28;20294;-72
2024/02/27 13:16:05;;;;;;;;;;;18.60;60.50;;;;;;5051812;28;19988;-72
2024/02/27 13:18:31;;;;;;;;;;;18.60;60.10;;;;;;5054775;28;19960;-71
2024/02/27 13:20:57;;;;;;;;;;;18.60;60.60;;;;;;5037430;28;20367;-72
2024/02/27 13:23:23;;;;;;;;;;;18.70;60.40;;;;;;5055095;28;19916;-71
2024/02/27 13:25:49;;;;;;;;;;;18.60;60.20;;;;;;5055288;28;19909;-72
2024/02/27 13:28:18;;;;;;;;;;;18.60;60.40;;;;;;5055310;28;19910;-72
2024/02/27 13:30:44;;;;;;;;;;;18.70;60.30;;;;;;5055306;28;19916;-73
2024/02/27 13:33:10;;;;;;;;;;;18.50;60.80;;;;;;5055255;28;19909;-72
2024/02/27 13:35:36;;;;;;;;;;;18.50;60.90;;;;;;5055170;28;20268;-72
2024/02/27 13:38:02;;;;;;;;;;;18.40;61.30;;;;;;5054859;28;20290;-71
2024/02/27 13:40:28;;;;;;;;;;;18.50;60.80;;;;;;5055459;28;19909;-72
2024/02/27 13:42:54;;;;;;;;;;;18.50;61.40;;;;;;5054670;28;19968;-73
2024/02/27 13:45:20;;;;;;;;;;;18.60;61.40;;;;;;5055009;28;19932;-72
2024/02/27 13:47:46;;;;;;;;;;;18.60;61.30;;;;;;5054877;28;20291;-72
2024/02/27 13:50:12;;;;;;;;;;;18.70;61.10;;;;;;5054692;28;20386;-72
2024/02/27 13:52:39;;;;;;;;;;;18.60;61.30;;;;;;5054501;28;19909;-76
2024/02/27 13:55:06;;;;;;;;;;;18.50;61.40;;;;;;5037328;28;19913;-76
2024/02/27 13:57:32;;;;;;;;;;;18.40;60.20;;;;;;5054761;28;20325;-77
2024/02/27 13:59:58;;;;;;;;;;;18.40;61.90;;;;;;5054432;28;19915;-76
2024/02/27 14:02:24;;;;;;;;;;;18.30;62.20;;;;;;5054538;28;19970;-76
2024/02/27 14:04:50;;;;;;;;;;;18.30;62.40;;;;;;5054537;28;20310;-76
2024/02/27 14:07:16;;;;;;;;;;;18.20;63.10;;;;;;5054780;28;19923;-76
2024/02/27 14:09:42;;;;;;;;;;;18.10;63.10;;;;;;5054477;28;19999;-76
2024/02/27 14:12:08;;;;;;;;;;;18.00;64.30;;;;;;5054202;28;19909;-76
2024/02/27 14:14:38;;;;;;;;;;;18.10;63.20;;;;;;5054172;28;19909;-76